Time;durP1;ratioP1;P1;durP2;ratioP2;P2;SDS_P1;SDS_P2;PMS_P1;PMS_P2;Temp;Humidity;BMP_temperature;BMP_pressure;BME280_temperature;BME280_humidity;BME280_pressure;Samples;Min_cycle;Max_cycle;Signal;HPM_P1;HPM_P2
2022/12/03 00:01:45;;;;;;;;;;;;;;;27.41;24.42;101807.97;4977840;28;1170;-24
2022/12/03 00:04:10;;;;;;;;;;;;;;;26.96;24.21;101804.44;4977704;28;1102;-25
2022/12/03 00:06:36;;;;;;;;;;;;;;;26.25;25.14;101805.91;4977888;28;1188;-23
2022/12/03 00:09:01;;;;;;;;;;;;;;;26.78;24.67;101805.28;4978111;28;1145;-24
2022/12/03 00:11:26;;;;;;;;;;;;;;;26.70;24.59;101813.31;4977857;28;1133;-26
2022/12/03 00:13:52;;;;;;;;;;;;;;;26.15;25.07;101813.22;4977805;28;2600;-23
2022/12/03 00:16:17;;;;;;;;;;;;;;;26.61;24.92;101807.00;4977603;28;1118;-24
2022/12/03 00:18:42;;;;;;;;;;;;;;;27.03;24.22;101808.22;4977719;28;1906;-23
2022/12/03 00:21:08;;;;;;;;;;;;;;;27.19;24.34;101810.22;4977730;28;1157;-24
2022/12/03 00:23:33;;;;;;;;;;;;;;;27.34;24.26;101805.06;4977513;28;1122;-23
2022/12/03 00:25:58;;;;;;;;;;;;;;;27.47;24.62;101806.50;4977715;28;1220;-24
2022/12/03 00:28:24;;;;;;;;;;;;;;;26.59;26.21;101804.44;4977549;28;1114;-23
2022/12/03 00:30:52;;;;;;;;;;;;;;;26.76;26.50;101809.97;4977330;28;1137;-24
2022/12/03 00:33:17;;;;;;;;;;;;;;;27.53;25.64;101816.66;4977631;28;1158;-24
2022/12/03 00:35:43;;;;;;;;;;;;;;;27.72;25.67;101820.19;4977677;28;1201;-24
2022/12/03 00:38:08;;;;;;;;;;;;;;;26.98;26.36;101818.59;4977296;28;1149;-25
2022/12/03 00:40:33;;;;;;;;;;;;;;;27.07;26.75;101823.13;4977024;28;1971;-23
2022/12/03 00:42:59;;;;;;;;;;;;;;;27.73;25.59;101828.13;4977100;28;2592;-25
2022/12/03 00:45:24;;;;;;;;;;;;;;;27.85;25.70;101827.84;4977241;28;1149;-24
2022/12/03 00:47:49;;;;;;;;;;;;;;;27.63;25.20;101822.81;4977503;28;1173;-23
2022/12/03 00:50:14;;;;;;;;;;;;;;;27.09;26.55;101829.19;4977109;28;1118;-25
2022/12/03 00:52:40;;;;;;;;;;;;;;;27.46;26.37;101827.25;4976918;28;1423;-26
2022/12/03 00:55:05;;;;;;;;;;;;;;;27.91;25.67;101820.94;4977396;28;1134;-27
2022/12/03 00:57:30;;;;;;;;;;;;;;;27.21;25.90;101821.69;4977011;28;1177;-23
2022/12/03 00:59:56;;;;;;;;;;;;;;;27.29;26.43;101818.22;4977270;28;1899;-25
2022/12/03 01:02:21;;;;;;;;;;;;;;;27.93;25.59;101808.94;4977296;28;1126;-26
2022/12/03 01:04:46;;;;;;;;;;;;;;;27.38;26.05;101809.16;4977081;28;1169;-24
2022/12/03 01:07:12;;;;;;;;;;;;;;;27.20;25.70;101821.84;4976826;28;1371;-23
2022/12/03 01:09:37;;;;;;;;;;;;;;;27.90;25.57;101806.56;4977379;28;1181;-25
2022/12/03 01:12:02;;;;;;;;;;;;;;;27.94;25.44;101815.22;4963435;28;1796;-24
2022/12/03 01:14:27;;;;;;;;;;;;;;;27.92;25.61;101817.22;4977434;28;1161;-24
2022/12/03 01:16:53;;;;;;;;;;;;;;;27.76;25.24;101813.41;4976864;28;1177;-24
2022/12/03 01:19:18;;;;;;;;;;;;;;;27.30;26.33;101816.34;4976978;28;1898;-24
2022/12/03 01:21:47;;;;;;;;;;;;;;;27.67;26.20;101819.78;4976993;28;1220;-23
2022/12/03 01:24:12;;;;;;;;;;;;;;;28.09;25.50;101824.38;4977109;28;1182;-27
2022/12/03 01:26:37;;;;;;;;;;;;;;;27.35;25.81;101828.38;4976973;28;1268;-24
2022/12/03 01:29:03;;;;;;;;;;;;;;;27.36;26.52;101837.34;4976758;28;1154;-24
2022/12/03 01:34:13;;;;;;;;;;;;;;;27.91;25.88;101821.78;4976971;28;1209;-24
2022/12/03 01:36:39;;;;;;;;;;;;;;;27.99;25.45;101824.50;4978049;28;1078;-26
2022/12/03 01:39:04;;;;;;;;;;;;;;;27.57;25.98;101830.72;4980440;28;1906;-23
2022/12/03 01:41:30;;;;;;;;;;;;;;;27.37;25.90;101820.13;4980312;28;1094;-24
2022/12/03 01:43:55;;;;;;;;;;;;;;;28.04;25.53;101815.06;4980777;28;2656;-23
2022/12/03 01:46:22;;;;;;;;;;;;;;;27.89;25.03;101821.13;4980711;28;1233;-24
2022/12/03 01:48:48;;;;;;;;;;;;;;;27.37;25.62;101828.22;4980288;28;1142;-26
2022/12/03 01:51:13;;;;;;;;;;;;;;;27.92;25.46;101817.22;4963145;28;1161;-24
2022/12/03 01:53:38;;;;;;;;;;;;;;;28.17;25.01;101814.59;4979854;28;1071;-24
2022/12/03 01:56:04;;;;;;;;;;;;;;;28.11;25.44;101811.53;4980153;28;1130;-23
2022/12/03 01:58:29;;;;;;;;;;;;;;;28.06;24.69;101819.28;4979795;28;1970;-25
2022/12/03 02:00:55;;;;;;;;;;;;;;;27.46;25.95;101824.56;4982306;28;1138;-26
2022/12/03 02:03:21;;;;;;;;;;;;;;;27.71;25.94;101822.03;4991348;28;1187;-25
2022/12/03 02:05:47;;;;;;;;;;;;;;;28.20;25.09;101833.22;4962372;28;1189;-24
2022/12/03 02:08:31;;;;;;;;;;;;;;;28.22;25.04;101826.66;4979764;28;1165;-24
2022/12/03 02:10:57;;;;;;;;;;;;;;;27.95;24.79;101825.88;4980066;28;1121;-24
2022/12/03 02:13:22;;;;;;;;;;;;;;;27.55;25.56;101830.00;4979435;28;1837;-25
2022/12/03 02:15:47;;;;;;;;;;;;;;;28.02;25.08;101833.31;4979984;28;1113;-24
2022/12/03 02:18:13;;;;;;;;;;;;;;;28.21;24.96;101834.94;4979482;28;1113;-23
2022/12/03 02:20:44;;;;;;;;;;;;;;;28.29;24.85;101825.97;4979906;28;1977;-28
2022/12/03 02:23:12;;;;;;;;;;;;;;;27.84;25.22;101828.84;4979716;28;1185;-25
2022/12/03 02:25:38;;;;;;;;;;;;;;;27.53;25.68;101832.03;4979627;28;1288;-26
2022/12/03 02:28:04;;;;;;;;;;;;;;;28.14;25.22;101834.72;4962275;28;1138;-24
2022/12/03 02:30:29;;;;;;;;;;;;;;;28.30;24.65;101831.22;4961950;28;1185;-23
2022/12/03 02:32:54;;;;;;;;;;;;;;;28.34;24.85;101826.38;4961805;28;1715;-25
2022/12/03 02:35:23;;;;;;;;;;;;;;;27.93;24.86;101833.28;4961687;28;1491;-24
2022/12/03 02:37:53;;;;;;;;;;;;;;;27.58;25.04;101833.25;4979428;28;1142;-24
2022/12/03 02:40:22;;;;;;;;;;;;;;;28.30;24.75;101836.63;4979302;28;1911;-26
2022/12/03 02:42:48;;;;;;;;;;;;;;;28.36;24.44;101837.88;4979008;28;2349;-22
2022/12/03 02:45:13;;;;;;;;;;;;;;;28.44;24.36;101837.91;4962371;28;1181;-25
2022/12/03 02:47:46;;;;;;;;;;;;;;;27.81;25.30;101831.88;4978986;28;1197;-25
2022/12/03 02:50:12;;;;;;;;;;;;;;;27.60;25.12;101835.78;4979945;28;1138;-24
2022/12/03 02:52:37;;;;;;;;;;;;;;;28.34;24.63;101835.31;4961901;28;1174;-25
2022/12/03 02:55:03;;;;;;;;;;;;;;;28.38;24.60;101837.72;4979261;28;977;-25
2022/12/03 02:57:28;;;;;;;;;;;;;;;28.41;24.38;101837.38;4979292;28;1217;-23
2022/12/03 02:59:53;;;;;;;;;;;;;;;27.72;25.02;101839.97;4979169;28;1884;-23
2022/12/03 03:02:19;;;;;;;;;;;;;;;27.61;24.78;101843.72;4979136;28;1141;-24
2022/12/03 03:04:44;;;;;;;;;;;;;;;28.31;24.75;101845.59;4961029;28;1130;-23
2022/12/03 03:07:10;;;;;;;;;;;;;;;28.38;24.71;101848.53;4978436;28;1032;-25
2022/12/03 03:09:35;;;;;;;;;;;;;;;28.41;24.55;101845.50;4979302;28;1177;-24
2022/12/03 03:12:00;;;;;;;;;;;;;;;27.79;24.99;101850.97;4978782;28;2355;-24
2022/12/03 03:14:26;;;;;;;;;;;;;;;27.59;24.67;101853.84;4961355;28;1126;-24
2022/12/03 03:16:54;;;;;;;;;;;;;;;28.37;24.44;101850.38;4978622;28;1158;-23
2022/12/03 03:19:29;;;;;;;;;;;;;;;28.38;24.69;101848.53;4978663;28;1906;-26
2022/12/03 03:21:54;;;;;;;;;;;;;;;28.42;24.61;101852.59;4978691;28;1165;-24
2022/12/03 03:24:20;;;;;;;;;;;;;;;27.80;25.36;101849.97;4978593;28;1183;-24
2022/12/03 03:26:45;;;;;;;;;;;;;;;27.66;25.43;101853.22;4978785;28;1216;-23
2022/12/03 03:29:11;;;;;;;;;;;;;;;28.40;24.50;101854.59;4961529;28;1169;-24
2022/12/03 03:31:36;;;;;;;;;;;;;;;28.48;24.46;101860.91;4960649;28;944;-25
2022/12/03 03:34:01;;;;;;;;;;;;;;;28.42;24.21;101861.56;4978372;28;1189;-24
2022/12/03 03:36:26;;;;;;;;;;;;;;;27.79;24.99;101860.94;4978401;28;1162;-25
2022/12/03 03:38:52;;;;;;;;;;;;;;;27.92;25.31;101863.19;4978378;28;1910;-26
2022/12/03 03:41:17;;;;;;;;;;;;;;;28.44;24.29;101872.22;4978404;28;1110;-25
2022/12/03 03:43:43;;;;;;;;;;;;;;;28.42;24.55;101876.94;4977627;28;1824;-24
2022/12/03 03:46:08;;;;;;;;;;;;;;;28.27;24.13;101872.13;4977731;28;1173;-24
2022/12/03 03:48:33;;;;;;;;;;;;;;;27.53;24.12;101872.59;4960899;28;1197;-24
2022/12/03 03:50:59;;;;;;;;;;;;;;;27.67;24.96;101881.94;4960325;28;1115;-24
2022/12/03 03:53:24;;;;;;;;;;;;;;;28.12;24.04;101877.31;4978222;28;1130;-25
2022/12/03 03:55:49;;;;;;;;;;;;;;;28.18;23.74;101875.81;4977418;28;1007;-23
2022/12/03 03:58:15;;;;;;;;;;;;;;;28.17;23.38;101879.53;4977932;28;1381;-25
2022/12/03 04:00:43;;;;;;;;;;;;;;;27.26;23.99;101880.63;4959644;28;1964;-23
2022/12/03 04:03:09;;;;;;;;;;;;;;;27.23;24.50;101884.50;4960979;28;1126;-25
2022/12/03 04:05:34;;;;;;;;;;;;;;;27.91;23.69;101891.25;4960225;28;1198;-26
2022/12/03 04:07:59;;;;;;;;;;;;;;;27.25;24.03;101887.06;4977595;28;944;-25
2022/12/03 04:13:08;;;;;;;;;;;;;;;27.72;23.52;101887.75;4977264;28;1899;-26
2022/12/03 04:15:33;;;;;;;;;;;;;;;27.81;23.44;101889.50;4977857;28;1122;-26
2022/12/03 04:20:42;;;;;;;;;;;;;;;27.68;23.29;101897.16;4977492;28;1957;-26
2022/12/03 04:23:08;;;;;;;;;;;;;;;26.75;24.58;101894.66;4977400;28;1201;-25
2022/12/03 04:35:41;;;;;;;;;;;;;;;26.63;24.79;101902.97;4976971;28;1110;-23
2022/12/03 04:36:33;;;;;;;;;;;;;;;27.59;23.32;101910.59;4977172;28;1122;-26
2022/12/03 04:38:58;;;;;;;;;;;;;;;27.67;23.29;101906.28;4976910;28;1973;-25
2022/12/03 04:41:23;;;;;;;;;;;;;;;27.67;23.38;101908.97;4977313;28;1102;-24
2022/12/03 04:46:32;;;;;;;;;;;;;;;26.85;24.56;101917.06;4976917;28;1059;-23
2022/12/03 04:48:58;;;;;;;;;;;;;;;27.40;23.88;101914.38;4977519;28;1158;-25
2022/12/03 04:51:23;;;;;;;;;;;;;;;26.95;21.67;101908.88;4976447;28;1269;-28
2022/12/03 04:53:48;;;;;;;;;;;;;;;25.82;21.56;101912.53;4977529;28;1169;-27
2022/12/03 04:56:14;;;;;;;;;;;;;;;26.48;23.63;101907.19;4974725;28;1303;-24
2022/12/03 04:58:39;;;;;;;;;;;;;;;26.37;23.22;101906.41;4977094;28;1898;-24
2022/12/03 05:01:04;;;;;;;;;;;;;;;26.02;23.18;101903.41;4977117;28;1110;-24
2022/12/03 05:03:29;;;;;;;;;;;;;;;26.54;23.61;101914.69;4976461;28;1176;-27
2022/12/03 05:05:55;;;;;;;;;;;;;;;26.22;23.13;101913.25;4977345;28;1043;-26
2022/12/03 05:08:20;;;;;;;;;;;;;;;25.94;23.05;101914.06;4976292;28;1200;-24
2022/12/03 05:10:45;;;;;;;;;;;;;;;26.83;23.02;101926.28;4977040;28;1047;-25
2022/12/03 05:13:10;;;;;;;;;;;;;;;27.10;22.67;101922.72;4976296;28;1837;-25
2022/12/03 05:15:36;;;;;;;;;;;;;;;27.33;22.12;101922.25;4973604;28;1378;-28
2022/12/03 05:18:01;;;;;;;;;;;;;;;27.19;21.43;101926.38;4976727;28;1374;-26
2022/12/03 05:20:42;;;;;;;;;;;;;;;26.19;22.73;101930.59;4976444;28;1973;-24
2022/12/03 05:23:07;;;;;;;;;;;;;;;26.61;23.34;101923.88;4974769;28;1366;-30
2022/12/03 05:25:33;;;;;;;;;;;;;;;26.90;22.07;101936.34;4973361;28;1247;-26
2022/12/03 05:27:58;;;;;;;;;;;;;;;26.09;22.63;101930.59;4976578;28;1023;-24
2022/12/03 05:30:23;;;;;;;;;;;;;;;26.21;23.52;101941.22;4976248;28;1164;-25
2022/12/03 05:32:49;;;;;;;;;;;;;;;26.97;22.57;101936.59;4976383;28;1228;-26
2022/12/03 05:35:14;;;;;;;;;;;;;;;26.54;21.76;101933.59;4976703;28;1122;-23
2022/12/03 05:37:39;;;;;;;;;;;;;;;25.91;22.48;101931.38;4976851;28;1098;-30
2022/12/03 05:40:05;;;;;;;;;;;;;;;26.45;22.95;101938.03;4976271;28;1883;-27
2022/12/03 05:45:14;;;;;;;;;;;;;;;26.20;22.18;101953.00;4976096;28;1390;-25
2022/12/03 05:47:39;;;;;;;;;;;;;;;25.68;22.49;101952.41;4975510;28;1539;-25
2022/12/03 05:50:05;;;;;;;;;;;;;;;26.33;22.96;101960.78;4976663;28;884;-26
2022/12/03 05:52:30;;;;;;;;;;;;;;;26.69;22.78;101957.38;4976611;28;1181;-24
2022/12/03 05:54:55;;;;;;;;;;;;;;;26.92;22.67;101963.19;4974778;28;1193;-23
2022/12/03 05:57:21;;;;;;;;;;;;;;;26.95;23.35;101962.88;4976062;28;1224;-24
2022/12/03 05:59:46;;;;;;;;;;;;;;;26.01;24.41;101969.09;4975842;28;1898;-25
2022/12/03 06:02:11;;;;;;;;;;;;;;;26.17;24.50;101968.47;4975734;28;1130;-24
2022/12/03 06:04:36;;;;;;;;;;;;;;;26.84;23.68;101969.31;4975427;28;992;-24
2022/12/03 06:07:02;;;;;;;;;;;;;;;26.98;23.79;101973.38;4973238;28;1154;-27
2022/12/03 06:09:27;;;;;;;;;;;;;;;26.18;24.59;101974.72;4976424;28;1122;-24
2022/12/03 06:11:53;;;;;;;;;;;;;;;25.95;25.08;101982.31;4960762;28;1848;-27
2022/12/03 06:14:18;;;;;;;;;;;;;;;26.76;24.03;101982.72;4967108;28;1146;-27
2022/12/03 06:16:44;;;;;;;;;;;;;;;26.15;25.19;101983.97;4976044;28;1180;-25
2022/12/03 06:19:09;;;;;;;;;;;;;;;25.72;25.50;101983.50;4973616;28;1906;-23
2022/12/03 06:21:34;;;;;;;;;;;;;;;26.62;24.60;101986.81;4973768;28;1273;-25
2022/12/03 06:24:00;;;;;;;;;;;;;;;27.20;24.13;101995.56;4978613;28;1330;-24
2022/12/03 06:26:25;;;;;;;;;;;;;;;27.34;23.80;101986.06;4978283;28;1248;-24
2022/12/03 06:28:50;;;;;;;;;;;;;;;26.81;24.03;101979.59;4979280;28;1208;-24
2022/12/03 06:31:16;;;;;;;;;;;;;;;26.46;24.34;101977.47;4979018;28;1023;-25
2022/12/03 06:33:41;;;;;;;;;;;;;;;27.20;23.95;101984.78;4979593;28;1098;-24
2022/12/03 06:36:06;;;;;;;;;;;;;;;26.89;23.87;101982.41;4979707;28;1165;-24
2022/12/03 06:38:32;;;;;;;;;;;;;;;26.48;24.46;101975.50;4979981;28;1421;-25
2022/12/03 06:40:57;;;;;;;;;;;;;;;27.31;24.10;101982.84;4979521;28;1968;-25
2022/12/03 06:43:22;;;;;;;;;;;;;;;27.49;23.92;101980.16;4979159;28;991;-25
2022/12/03 06:45:47;;;;;;;;;;;;;;;27.61;23.76;101987.00;4979015;28;1306;-28
2022/12/03 06:48:13;;;;;;;;;;;;;;;27.32;23.88;101993.50;4979556;28;1058;-24
2022/12/03 06:50:38;;;;;;;;;;;;;;;26.70;24.59;101983.34;4979173;28;1251;-25
2022/12/03 06:53:03;;;;;;;;;;;;;;;27.28;24.25;101988.56;4979160;28;1042;-24
2022/12/03 06:55:29;;;;;;;;;;;;;;;27.41;23.78;101983.59;4973962;28;1091;-26
2022/12/03 06:57:54;;;;;;;;;;;;;;;26.77;24.34;101982.63;4979243;28;1291;-27
2022/12/03 07:00:19;;;;;;;;;;;;;;;27.17;24.11;101985.09;4979383;28;1899;-26
2022/12/03 07:02:45;;;;;;;;;;;;;;;27.69;23.91;101990.81;4961410;28;1311;-27
2022/12/03 07:05:10;;;;;;;;;;;;;;;26.98;24.44;101986.88;4979399;28;1142;-25
2022/12/03 07:07:35;;;;;;;;;;;;;;;26.73;24.90;101989.28;4972598;28;1122;-23
2022/12/03 07:10:00;;;;;;;;;;;;;;;27.04;24.57;101985.47;4978926;28;1165;-24
2022/12/03 07:12:26;;;;;;;;;;;;;;;26.81;24.26;101988.53;4979008;28;1125;-26
2022/12/03 07:14:51;;;;;;;;;;;;;;;26.54;25.03;101987.56;4979048;28;1125;-23
2022/12/03 07:17:16;;;;;;;;;;;;;;;26.90;24.70;101987.66;4978927;28;1185;-25
2022/12/03 07:19:42;;;;;;;;;;;;;;;27.10;24.61;101998.34;4978941;28;1969;-27
2022/12/03 07:22:07;;;;;;;;;;;;;;;27.58;23.81;101986.44;4979080;28;1150;-23
2022/12/03 07:24:32;;;;;;;;;;;;;;;27.74;23.57;101994.72;4978450;28;1223;-24
2022/12/03 07:26:57;;;;;;;;;;;;;;;27.17;24.45;102000.44;4978780;28;1125;-24
2022/12/03 07:29:23;;;;;;;;;;;;;;;27.13;24.29;102002.59;4978979;28;1142;-28
2022/12/03 07:31:48;;;;;;;;;;;;;;;27.36;24.10;102003.00;4978003;28;1216;-25
2022/12/03 07:34:13;;;;;;;;;;;;;;;27.58;24.06;101999.97;4962850;28;1214;-24
2022/12/03 07:36:39;;;;;;;;;;;;;;;27.69;23.81;102002.47;4979068;28;844;-26
2022/12/03 07:39:04;;;;;;;;;;;;;;;27.81;23.67;102002.22;4978208;28;1906;-26
2022/12/03 07:41:29;;;;;;;;;;;;;;;28.11;23.36;102000.06;4978526;28;1232;-25
2022/12/03 07:43:54;;;;;;;;;;;;;;;28.16;23.55;102007.69;4977971;28;1154;-24
2022/12/03 07:46:20;;;;;;;;;;;;;;;28.32;23.09;102009.66;4978796;28;1216;-27
2022/12/03 07:48:45;;;;;;;;;;;;;;;28.65;22.84;102000.84;4978110;28;1137;-26
2022/12/03 07:51:10;;;;;;;;;;;;;;;28.62;22.81;101998.47;4978468;28;1137;-28
2022/12/03 07:53:36;;;;;;;;;;;;;;;28.88;22.43;102003.00;4977892;28;1130;-26
2022/12/03 07:56:02;;;;;;;;;;;;;;;29.09;22.31;102003.38;4977977;28;1205;-27
2022/12/03 07:58:27;;;;;;;;;;;;;;;29.08;22.31;102003.56;4978359;28;1252;-24
2022/12/03 08:00:52;;;;;;;;;;;;;;;28.59;22.76;102005.91;4977025;28;1902;-24
2022/12/03 08:03:18;;;;;;;;;;;;;;;28.19;23.50;102010.09;4978357;28;951;-24
2022/12/03 08:05:43;;;;;;;;;;;;;;;28.74;22.60;102010.72;4977437;28;1145;-24
2022/12/03 08:08:08;;;;;;;;;;;;;;;28.79;22.63;102013.78;4967418;28;1126;-27
2022/12/03 08:10:34;;;;;;;;;;;;;;;28.64;22.60;102007.28;4977747;28;1157;-25
2022/12/03 08:12:59;;;;;;;;;;;;;;;28.72;22.69;102007.31;4977850;28;1176;-28
2022/12/03 08:15:25;;;;;;;;;;;;;;;28.93;22.64;102008.72;4977418;28;1228;-24
2022/12/03 08:17:55;;;;;;;;;;;;;;;28.52;23.20;102004.03;4978071;28;1227;-27
2022/12/03 08:20:21;;;;;;;;;;;;;;;28.23;23.84;102006.91;4977453;28;1964;-25
2022/12/03 08:22:48;;;;;;;;;;;;;;;28.69;23.21;102005.81;4977939;28;1181;-24
2022/12/03 08:25:14;;;;;;;;;;;;;;;28.47;23.14;102010.78;4977002;28;1169;-26
2022/12/03 08:27:39;;;;;;;;;;;;;;;28.73;23.02;102004.44;4960464;28;1141;-25
2022/12/03 08:30:05;;;;;;;;;;;;;;;28.99;22.74;102007.25;4977089;28;1146;-25
2022/12/03 08:32:30;;;;;;;;;;;;;;;29.03;22.55;102008.66;4977043;28;1115;-24
2022/12/03 08:34:55;;;;;;;;;;;;;;;28.83;22.92;102007.03;4977237;28;1154;-26
2022/12/03 08:37:21;;;;;;;;;;;;;;;28.55;23.53;102009.97;4977475;28;1173;-28
2022/12/03 08:39:47;;;;;;;;;;;;;;;28.92;22.75;102010.63;4977023;28;1918;-25
2022/12/03 08:45:20;;;;;;;;;;;;;;;28.96;22.87;102000.31;4976382;28;1229;-24
2022/12/03 08:47:45;;;;;;;;;;;;;;;29.14;22.62;102004.75;4977372;28;1347;-24
2022/12/03 08:50:29;;;;;;;;;;;;;;;29.31;22.43;101997.50;4977443;28;1177;-24
2022/12/03 08:52:56;;;;;;;;;;;;;;;29.41;22.06;102002.78;4977256;28;1406;-26
2022/12/03 08:55:33;;;;;;;;;;;;;;;28.90;22.82;102004.50;4966126;28;1201;-27
2022/12/03 08:57:58;;;;;;;;;;;;;;;28.66;23.05;101997.97;4977377;28;1030;-23
2022/12/03 09:00:23;;;;;;;;;;;;;;;28.74;22.96;101999.88;4966324;28;1902;-24
2022/12/03 09:02:52;;;;;;;;;;;;;;;28.88;22.62;101995.69;4977426;28;1129;-27
2022/12/03 09:05:18;;;;;;;;;;;;;;;28.42;23.23;101994.19;4977129;28;1189;-27
2022/12/03 09:07:44;;;;;;;;;;;;;;;28.72;22.91;101991.06;4975126;28;1495;-25
2022/12/03 09:10:09;;;;;;;;;;;;;;;28.71;22.78;101984.81;4975800;28;1386;-24
2022/12/03 09:12:34;;;;;;;;;;;;;;;28.85;22.83;101985.19;4976648;28;1265;-26
2022/12/03 09:15:00;;;;;;;;;;;;;;;29.16;22.30;101991.91;4976254;28;1197;-25
2022/12/03 09:17:25;;;;;;;;;;;;;;;29.22;22.29;101988.53;4976104;28;1528;-28
2022/12/03 09:19:50;;;;;;;;;;;;;;;29.10;22.19;101990.69;4977055;28;1911;-25
2022/12/03 09:22:16;;;;;;;;;;;;;;;28.93;22.51;101995.19;4976653;28;1137;-26
2022/12/03 09:24:41;;;;;;;;;;;;;;;28.75;22.80;101995.31;4976558;28;1126;-24
2022/12/03 09:27:06;;;;;;;;;;;;;;;28.95;22.51;101993.16;4976933;28;1121;-25
2022/12/03 09:29:32;;;;;;;;;;;;;;;29.02;22.53;101987.97;4976812;28;1098;-25
2022/12/03 09:31:57;;;;;;;;;;;;;;;28.46;23.11;102000.13;4977455;28;1156;-28
2022/12/03 09:34:22;;;;;;;;;;;;;;;28.29;23.09;101996.44;4976489;28;1012;-26
2022/12/03 09:36:47;;;;;;;;;;;;;;;28.55;22.88;101996.44;4976706;28;1184;-23
2022/12/03 09:39:13;;;;;;;;;;;;;;;28.51;22.95;101997.75;4977052;28;1973;-26
2022/12/03 09:41:38;;;;;;;;;;;;;;;28.63;22.77;101992.06;4976823;28;1173;-23
2022/12/03 09:44:03;;;;;;;;;;;;;;;28.77;22.68;101982.47;4955789;28;1231;-25
2022/12/03 09:46:29;;;;;;;;;;;;;;;28.91;22.34;101984.53;4959137;28;887;-24
2022/12/03 09:48:54;;;;;;;;;;;;;;;28.43;23.10;101976.91;4976920;28;1192;-23
2022/12/03 09:51:20;;;;;;;;;;;;;;;28.18;23.51;101984.03;4976353;28;1122;-26
2022/12/03 09:53:45;;;;;;;;;;;;;;;28.49;23.02;101980.84;4976895;28;1122;-26
2022/12/03 09:56:17;;;;;;;;;;;;;;;28.57;22.89;101980.88;4970465;28;1142;-26
2022/12/03 09:58:43;;;;;;;;;;;;;;;28.71;22.73;101983.97;4961526;28;961;-26
2022/12/03 10:01:10;;;;;;;;;;;;;;;28.87;22.65;101979.59;4980285;28;1902;-23
2022/12/03 10:03:42;;;;;;;;;;;;;;;28.94;22.36;101983.34;4962969;28;1146;-26
2022/12/03 10:06:08;;;;;;;;;;;;;;;28.42;23.14;101971.66;4980289;28;1118;-24
2022/12/03 10:08:33;;;;;;;;;;;;;;;28.28;23.35;101984.75;4961757;28;1107;-23
2022/12/03 10:10:59;;;;;;;;;;;;;;;28.21;23.07;101973.72;4980223;28;1173;-25
2022/12/03 10:13:28;;;;;;;;;;;;;;;28.45;22.98;101971.34;4963013;28;1281;-25
2022/12/03 10:15:53;;;;;;;;;;;;;;;28.63;22.76;101975.81;4980184;28;1121;-23
2022/12/03 10:18:22;;;;;;;;;;;;;;;28.91;22.88;101970.16;4962433;28;1213;-24
2022/12/03 10:20:48;;;;;;;;;;;;;;;29.08;22.13;101977.31;4979282;28;1961;-25
2022/12/03 10:23:22;;;;;;;;;;;;;;;28.71;22.53;101968.56;4979854;28;1134;-25
2022/12/03 10:25:48;;;;;;;;;;;;;;;28.45;23.05;101969.50;4959532;29;1279;-23
2022/12/03 10:28:17;;;;;;;;;;;;;;;28.57;23.22;101967.34;4960317;29;1233;-22
2022/12/03 10:30:51;;;;;;;;;;;;;;;28.70;22.82;101966.03;4942282;29;1193;-24
2022/12/03 10:33:17;;;;;;;;;;;;;;;28.84;22.77;101970.78;4959686;29;1200;-24
2022/12/03 10:35:42;;;;;;;;;;;;;;;28.32;23.31;101969.06;4960241;29;960;-23
2022/12/03 10:38:16;;;;;;;;;;;;;;;28.37;23.11;101972.16;4960270;29;1142;-25
2022/12/03 10:40:42;;;;;;;;;;;;;;;28.42;22.94;101969.81;4960074;29;1915;-24
2022/12/03 10:43:16;;;;;;;;;;;;;;;28.59;22.85;101961.75;4960478;28;1126;-24
2022/12/03 10:45:41;;;;;;;;;;;;;;;28.78;22.86;101963.34;4959580;29;895;-24
2022/12/03 10:48:14;;;;;;;;;;;;;;;29.06;22.13;101959.56;4960157;29;1138;-25
2022/12/03 10:50:46;;;;;;;;;;;;;;;28.98;22.21;101962.25;4959389;29;1234;-26
2022/12/03 10:53:11;;;;;;;;;;;;;;;28.82;22.49;101958.44;4959953;29;1187;-26
2022/12/03 10:55:37;;;;;;;;;;;;;;;28.77;22.65;101958.09;4959971;29;1134;-25
2022/12/03 10:58:03;;;;;;;;;;;;;;;28.74;22.85;101959.28;4942588;29;1138;-24
2022/12/03 11:00:28;;;;;;;;;;;;;;;28.90;22.65;101958.47;4959552;29;1975;-24
2022/12/03 11:02:53;;;;;;;;;;;;;;;28.98;22.51;101963.06;4959837;29;1185;-24
2022/12/03 11:05:20;;;;;;;;;;;;;;;28.37;23.23;101964.03;4949182;29;1146;-25
2022/12/03 11:07:45;;;;;;;;;;;;;;;28.79;22.57;101958.78;4948033;29;1158;-27
2022/12/03 11:10:14;;;;;;;;;;;;;;;29.06;22.38;101957.66;4957361;29;1206;-27
2022/12/03 11:12:39;;;;;;;;;;;;;;;28.96;22.62;101956.97;4959938;29;1169;-27
2022/12/03 11:15:05;;;;;;;;;;;;;;;29.03;22.30;101951.75;4942433;29;1123;-24
2022/12/03 11:17:43;;;;;;;;;;;;;;;29.09;22.14;101956.50;4959804;29;1145;-26
2022/12/03 11:20:32;;;;;;;;;;;;;;;29.13;22.13;101957.03;4958801;29;1875;-25
2022/12/03 11:22:57;;;;;;;;;;;;;;;28.80;22.54;101958.59;4958974;29;1532;-24
2022/12/03 11:25:26;;;;;;;;;;;;;;;28.78;22.72;101960.63;4976375;28;1083;-25
2022/12/03 11:28:10;;;;;;;;;;;;;;;28.90;22.56;101955.75;4978186;28;1181;-24
2022/12/03 11:30:47;;;;;;;;;;;;;;;28.52;23.00;101960.72;4977261;28;1135;-24
2022/12/03 11:33:24;;;;;;;;;;;;;;;28.36;23.33;101954.25;4978639;28;1185;-24
2022/12/03 11:36:01;;;;;;;;;;;;;;;28.97;22.67;101945.13;4978420;28;1250;-26
2022/12/03 11:38:36;;;;;;;;;;;;;;;28.90;22.88;101955.75;4978506;28;1153;-26
2022/12/03 11:41:07;;;;;;;;;;;;;;;29.23;22.12;101940.59;4978101;28;1910;-27
2022/12/03 11:43:51;;;;;;;;;;;;;;;29.20;22.18;101941.75;4978219;28;1157;-23
2022/12/03 11:46:20;;;;;;;;;;;;;;;29.20;22.15;101944.47;4978490;28;1098;-26
2022/12/03 11:48:45;;;;;;;;;;;;;;;28.83;22.53;101949.28;4978892;28;1122;-27
2022/12/03 11:51:14;;;;;;;;;;;;;;;28.69;23.07;101942.66;4962687;28;1114;-24
2022/12/03 11:53:40;;;;;;;;;;;;;;;28.92;22.57;101952.88;4961184;28;1174;-25
2022/12/03 11:56:07;;;;;;;;;;;;;;;29.16;22.25;101941.25;4976015;28;1174;-26
2022/12/03 11:58:33;;;;;;;;;;;;;;;29.09;22.20;101938.38;4978206;28;1193;-24
2022/12/03 12:00:59;;;;;;;;;;;;;;;28.78;22.82;101946.25;4976788;28;1959;-26
2022/12/03 12:03:24;;;;;;;;;;;;;;;28.58;23.10;101938.38;4977672;28;1000;-26
2022/12/03 12:06:08;;;;;;;;;;;;;;;28.78;23.13;101938.13;4977670;28;1126;-25
2022/12/03 12:08:35;;;;;;;;;;;;;;;29.23;22.35;101937.88;4977744;28;1083;-24
2022/12/03 12:11:00;;;;;;;;;;;;;;;29.09;22.71;101937.53;4977518;28;899;-27
2022/12/03 12:13:32;;;;;;;;;;;;;;;28.88;22.93;101944.22;4977914;28;1168;-24
2022/12/03 12:16:01;;;;;;;;;;;;;;;29.03;22.65;101940.91;4977629;28;1197;-24
2022/12/03 12:18:33;;;;;;;;;;;;;;;29.27;22.21;101939.22;4964344;28;1154;-26
2022/12/03 12:21:17;;;;;;;;;;;;;;;29.27;21.82;101941.94;4976997;28;1902;-24
2022/12/03 12:23:42;;;;;;;;;;;;;;;29.04;22.62;101938.03;4977432;28;1037;-25
2022/12/03 12:26:08;;;;;;;;;;;;;;;28.77;22.88;101942.69;4962637;28;1202;-26
2022/12/03 12:28:33;;;;;;;;;;;;;;;28.88;23.15;101944.22;4977876;28;1173;-24
2022/12/03 12:30:59;;;;;;;;;;;;;;;29.26;22.67;101945.69;4961319;28;1225;-24
2022/12/03 12:33:25;;;;;;;;;;;;;;;29.24;22.28;101936.88;4977665;28;1161;-24
2022/12/03 12:35:50;;;;;;;;;;;;;;;29.01;22.49;101943.78;4976573;28;1114;-24
2022/12/03 12:38:16;;;;;;;;;;;;;;;28.96;22.95;101946.94;4977048;28;1203;-25
2022/12/03 12:40:43;;;;;;;;;;;;;;;29.13;22.83;101952.44;4976199;28;1977;-27
2022/12/03 12:43:09;;;;;;;;;;;;;;;29.26;22.37;101956.50;4977250;28;1047;-26
2022/12/03 12:45:34;;;;;;;;;;;;;;;29.05;22.84;101952.41;4977643;28;1158;-23
2022/12/03 12:47:59;;;;;;;;;;;;;;;28.93;22.64;101954.56;4977152;28;943;-25
2022/12/03 12:50:25;;;;;;;;;;;;;;;28.97;22.78;101958.69;4977138;28;1129;-24
2022/12/03 12:52:55;;;;;;;;;;;;;;;29.13;22.52;101965.16;4977211;28;1173;-24
2022/12/03 12:55:21;;;;;;;;;;;;;;;29.30;22.22;101958.72;4960256;28;1098;-24
2022/12/03 12:57:46;;;;;;;;;;;;;;;29.10;22.26;101966.31;4971234;28;1174;-24
2022/12/03 13:00:16;;;;;;;;;;;;;;;28.88;22.51;101968.59;4977561;28;1903;-23
2022/12/03 13:02:46;;;;;;;;;;;;;;;28.93;22.56;101970.81;4977093;28;1185;-24
2022/12/03 13:05:11;;;;;;;;;;;;;;;29.07;22.42;101972.94;4959675;28;1190;-25
2022/12/03 13:07:36;;;;;;;;;;;;;;;29.10;22.26;101974.44;4976953;28;1196;-25
2022/12/03 13:10:12;;;;;;;;;;;;;;;28.56;23.12;101972.94;4976818;28;1173;-26